Time;durP1;ratioP1;P1;durP2;ratioP2;P2;SDS_P1;SDS_P2;PMS_P1;PMS_P2;Temp;Humidity;BMP_temperature;BMP_pressure;BME280_temperature;BME280_humidity;BME280_pressure;Samples;Min_cycle;Max_cycle;Signal;HPM_P1;HPM_P2
2022/05/21 00:02:05;;;;;;;7.17;4.67;;;20.40;99.90;;;;;;5032003;28;20214;-51
2022/05/21 00:04:32;;;;;;;5.77;4.20;;;20.20;99.90;;;;;;5029391;28;20225;-50
2022/05/21 00:07:00;;;;;;;5.53;5.00;;;20.20;99.90;;;;;;5025452;28;20211;-50
2022/05/21 00:09:28;;;;;;;8.70;5.83;;;20.00;99.90;;;;;;5024653;28;20202;-51
2022/05/21 00:11:55;;;;;;;10.63;5.77;;;19.90;99.90;;;;;;5027533;28;20708;-50
2022/05/21 00:14:23;;;;;;;6.10;4.80;;;20.00;99.90;;;;;;5023691;28;20208;-51
2022/05/21 00:16:53;;;;;;;8.37;5.63;;;19.60;99.90;;;;;;5029993;28;20206;-50
2022/05/21 00:19:20;;;;;;;6.60;4.87;;;19.60;99.90;;;;;;5029474;28;20293;-49
2022/05/21 00:21:47;;;;;;;13.73;5.10;;;19.50;99.90;;;;;;5022239;28;20650;-50
2022/05/21 00:24:15;;;;;;;10.07;5.83;;;19.60;99.90;;;;;;5027651;28;20203;-50
2022/05/21 00:26:42;;;;;;;10.07;5.03;;;19.60;99.90;;;;;;5026522;28;20242;-50
2022/05/21 00:29:09;;;;;;;7.83;5.50;;;19.60;99.90;;;;;;5034918;28;20194;-50
2022/05/21 00:31:37;;;;;;;7.70;5.70;;;19.70;99.90;;;;;;5030290;28;20676;-50
2022/05/21 00:34:04;;;;;;;11.67;6.40;;;19.60;99.90;;;;;;5031936;28;20686;-50
2022/05/21 00:36:31;;;;;;;12.63;6.00;;;19.50;99.90;;;;;;5028103;28;20661;-51
2022/05/21 00:38:59;;;;;;;8.27;6.50;;;19.50;99.90;;;;;;5031276;28;20253;-51
2022/05/21 00:41:27;;;;;;;13.93;6.13;;;19.50;99.90;;;;;;5031601;28;20230;-50
2022/05/21 00:43:56;;;;;;;6.47;5.53;;;19.50;99.90;;;;;;5034056;28;20244;-50
2022/05/21 00:46:27;;;;;;;11.47;5.67;;;19.30;99.90;;;;;;5031079;28;20285;-50
2022/05/21 00:48:59;;;;;;;9.27;6.17;;;19.30;99.90;;;;;;5032365;28;20206;-51
2022/05/21 00:51:30;;;;;;;5.83;5.27;;;19.40;99.90;;;;;;5031843;28;20223;-50
2022/05/21 00:54:01;;;;;;;11.70;7.07;;;19.40;99.90;;;;;;5033034;28;20201;-50
2022/05/21 00:56:32;;;;;;;11.67;6.17;;;19.50;99.90;;;;;;5031097;28;20260;-51
2022/05/21 01:01:49;;;;;;;11.93;6.10;;;19.40;99.90;;;;;;5030699;28;20284;-51
2022/05/21 01:04:16;;;;;;;7.23;6.53;;;19.30;99.90;;;;;;5028307;28;20620;-51
2022/05/21 01:06:43;;;;;;;7.80;6.57;;;19.30;99.90;;;;;;5031209;28;20280;-51
2022/05/21 01:09:10;;;;;;;8.63;7.10;;;19.20;99.90;;;;;;5031789;28;20591;-51
2022/05/21 01:11:39;;;;;;;9.13;5.97;;;19.30;99.90;;;;;;5030274;28;20230;-50
2022/05/21 01:14:10;;;;;;;10.80;5.93;;;19.20;99.90;;;;;;5029456;28;20648;-51
2022/05/21 01:16:38;;;;;;;6.37;5.47;;;19.30;99.90;;;;;;5031738;28;20248;-51
2022/05/21 01:19:08;;;;;;;6.40;4.97;;;19.30;99.90;;;;;;5030729;28;20703;-51
2022/05/21 01:21:36;;;;;;;9.03;6.07;;;19.30;99.90;;;;;;5030136;28;20292;-51
2022/05/21 01:24:06;;;;;;;5.80;5.07;;;19.40;99.90;;;;;;5030365;28;20290;-51
2022/05/21 01:26:35;;;;;;;5.07;4.30;;;19.50;99.90;;;;;;5031479;28;20203;-50
2022/05/21 01:29:04;;;;;;;6.23;4.87;;;19.60;99.90;;;;;;5030970;28;20199;-50
2022/05/21 01:31:32;;;;;;;4.87;4.10;;;19.60;99.90;;;;;;5026175;28;20218;-51
2022/05/21 01:34:00;;;;;;;11.20;6.20;;;19.60;99.90;;;;;;5025971;28;20218;-50
2022/05/21 01:36:27;;;;;;;9.53;5.93;;;19.50;99.90;;;;;;5028738;28;20742;-51
2022/05/21 01:38:54;;;;;;;9.40;6.80;;;19.50;99.90;;;;;;5030406;28;20745;-51
2022/05/21 01:41:22;;;;;;;6.87;6.20;;;19.40;99.90;;;;;;5030060;28;20222;-50
2022/05/21 01:46:34;;;;;;;13.13;6.97;;;19.20;99.90;;;;;;5030745;28;20295;-52
2022/05/21 01:49:01;;;;;;;9.37;6.20;;;19.20;99.90;;;;;;5028452;28;20206;-51
2022/05/21 01:51:28;;;;;;;6.63;6.03;;;19.20;99.90;;;;;;5030313;28;20292;-52
2022/05/21 01:53:54;;;;;;;8.23;5.60;;;19.20;99.90;;;;;;5031196;28;20245;-52
2022/05/21 01:56:23;;;;;;;6.50;5.90;;;19.20;99.90;;;;;;5031190;28;20616;-51
2022/05/21 01:58:50;;;;;;;13.47;5.87;;;19.10;99.90;;;;;;5028426;28;20291;-52
2022/05/21 02:01:17;;;;;;;6.70;5.97;;;19.10;99.90;;;;;;5022779;28;20627;-52
2022/05/21 02:03:44;;;;;;;6.70;4.90;;;19.00;99.90;;;;;;5027829;28;20263;-51
2022/05/21 02:06:11;;;;;;;8.07;6.10;;;19.00;99.90;;;;;;5031030;28;20202;-51
2022/05/21 02:08:38;;;;;;;9.07;6.10;;;19.10;99.90;;;;;;5030245;28;20199;-51
2022/05/21 02:11:05;;;;;;;8.57;5.97;;;19.30;99.90;;;;;;5028276;28;20260;-51
2022/05/21 02:13:35;;;;;;;6.63;5.67;;;19.30;99.90;;;;;;5030242;28;20595;-51
2022/05/21 02:16:02;;;;;;;5.90;5.30;;;19.20;99.90;;;;;;5030823;28;20668;-51
2022/05/21 02:18:30;;;;;;;10.83;6.70;;;19.10;99.90;;;;;;5030397;28;20206;-51
2022/05/21 02:20:57;;;;;;;9.40;7.13;;;19.10;99.90;;;;;;5028630;28;20303;-51
2022/05/21 02:23:25;;;;;;;8.87;6.43;;;19.10;99.90;;;;;;5030985;28;20195;-51
2022/05/21 02:25:52;;;;;;;8.57;5.90;;;18.90;99.90;;;;;;5030105;28;20210;-51
2022/05/21 02:28:19;;;;;;;8.30;6.20;;;18.90;99.90;;;;;;5030217;28;20245;-51
2022/05/21 02:30:48;;;;;;;6.93;6.30;;;18.90;99.90;;;;;;5026624;28;20198;-51
2022/05/21 02:33:15;;;;;;;7.80;6.20;;;18.90;99.90;;;;;;5029478;28;20292;-51
2022/05/21 02:35:42;;;;;;;8.60;6.30;;;18.90;99.90;;;;;;5034551;28;20713;-51
2022/05/21 02:40:54;;;;;;;13.33;6.50;;;19.20;99.90;;;;;;5044416;28;20200;-51
2022/05/21 02:43:21;;;;;;;11.20;6.37;;;19.10;99.90;;;;;;5042072;28;20336;-51
2022/05/21 02:45:49;;;;;;;6.33;5.80;;;19.00;99.90;;;;;;5030349;28;20297;-51
2022/05/21 02:48:16;;;;;;;7.33;6.10;;;19.00;99.90;;;;;;5036444;28;20210;-51
2022/05/21 02:50:44;;;;;;;7.33;6.63;;;19.00;99.90;;;;;;5033727;28;20198;-51
2022/05/21 02:53:17;;;;;;;6.00;5.50;;;18.90;99.90;;;;;;5026136;28;20224;-51
2022/05/21 02:55:44;;;;;;;8.03;7.33;;;18.90;99.90;;;;;;5032048;28;20563;-51
2022/05/21 02:58:11;;;;;;;7.03;5.70;;;18.90;99.90;;;;;;5026506;28;20202;-51
2022/05/21 03:00:38;;;;;;;8.03;6.20;;;18.80;99.90;;;;;;5033782;28;20244;-50
2022/05/21 03:03:06;;;;;;;8.17;6.23;;;18.90;99.90;;;;;;5033381;28;20273;-51
2022/05/21 03:05:33;;;;;;;6.47;5.63;;;19.00;99.90;;;;;;5031557;28;20250;-51
2022/05/21 03:10:20;;;;;;;6.53;5.87;;;19.10;99.90;;;;;;5031079;28;20665;-51
2022/05/21 03:10:47;;;;;;;6.67;6.10;;;19.20;99.90;;;;;;5028728;28;20238;-50
2022/05/21 03:13:14;;;;;;;6.20;5.63;;;19.20;99.90;;;;;;5034135;28;20222;-50
2022/05/21 03:15:42;;;;;;;5.30;5.00;;;18.80;99.90;;;;;;5034692;28;20249;-50
2022/05/21 03:18:12;;;;;;;5.80;4.87;;;18.60;99.90;;;;;;5031546;28;20202;-51
2022/05/21 03:20:40;;;;;;;4.70;4.50;;;18.50;99.90;;;;;;5033023;28;20206;-50
2022/05/21 03:23:08;;;;;;;4.77;4.47;;;18.50;99.90;;;;;;5032804;28;20226;-51
2022/05/21 03:25:35;;;;;;;4.40;3.97;;;18.50;99.90;;;;;;5034200;28;20194;-51
2022/05/21 03:28:03;;;;;;;5.50;4.53;;;18.50;99.90;;;;;;5034328;28;20257;-50
2022/05/21 03:30:32;;;;;;;4.67;4.30;;;18.40;99.90;;;;;;5029709;28;20206;-51
2022/05/21 03:32:59;;;;;;;5.07;4.77;;;18.40;99.90;;;;;;5032131;28;20268;-51
2022/05/21 03:35:28;;;;;;;6.43;5.83;;;18.50;99.90;;;;;;5032126;28;20207;-50
2022/05/21 03:37:55;;;;;;;5.97;5.47;;;18.50;99.90;;;;;;5033435;28;20249;-51
2022/05/21 03:40:25;;;;;;;5.00;4.60;;;18.30;99.90;;;;;;5033090;28;20295;-51
2022/05/21 03:42:54;;;;;;;5.77;4.60;;;18.30;99.90;;;;;;5031893;28;20296;-51
2022/05/21 03:45:21;;;;;;;6.00;5.60;;;18.20;99.90;;;;;;5033689;28;20698;-51
2022/05/21 03:47:50;;;;;;;8.00;6.80;;;18.10;99.90;;;;;;5032296;28;20688;-51
2022/05/21 03:50:20;;;;;;;7.23;5.80;;;18.20;99.90;;;;;;5031870;28;20198;-51
2022/05/21 03:52:48;;;;;;;5.97;5.57;;;18.20;99.90;;;;;;5032563;28;20654;-51
2022/05/21 03:55:16;;;;;;;9.50;5.73;;;18.20;99.90;;;;;;5033373;28;20620;-50
2022/05/21 03:57:42;;;;;;;8.60;6.87;;;18.10;99.90;;;;;;5032276;28;20742;-51
2022/05/21 04:00:14;;;;;;;7.20;6.60;;;18.10;99.90;;;;;;5031027;28;20199;-51
2022/05/21 04:02:41;;;;;;;6.33;5.83;;;18.10;99.90;;;;;;5032121;28;20273;-51
2022/05/21 04:05:11;;;;;;;6.97;6.27;;;18.10;99.90;;;;;;5033068;28;20198;-50
2022/05/21 04:07:39;;;;;;;6.20;5.80;;;18.20;99.90;;;;;;5032893;28;20202;-51
2022/05/21 04:10:09;;;;;;;6.77;6.17;;;18.10;99.90;;;;;;5031121;28;20203;-50
2022/05/21 04:12:37;;;;;;;7.20;6.57;;;18.20;99.90;;;;;;5017063;28;20591;-50
2022/05/21 04:15:04;;;;;;;8.53;6.43;;;18.00;99.90;;;;;;5032208;28;20295;-51
2022/05/21 04:17:31;;;;;;;7.30;6.70;;;17.90;99.90;;;;;;5031297;28;20202;-51
2022/05/21 04:19:58;;;;;;;8.53;7.43;;;17.90;99.90;;;;;;5032738;28;20260;-51
2022/05/21 04:22:25;;;;;;;9.80;6.93;;;17.70;99.90;;;;;;5027278;28;20708;-50
2022/05/21 04:24:52;;;;;;;6.97;6.37;;;17.60;99.90;;;;;;5032235;28;20207;-51
2022/05/21 04:27:20;;;;;;;7.00;6.50;;;17.60;99.90;;;;;;5032649;28;20207;-51
2022/05/21 04:29:47;;;;;;;7.57;6.87;;;17.70;99.90;;;;;;5032871;28;20202;-51
2022/05/21 04:32:14;;;;;;;7.37;6.50;;;17.70;99.90;;;;;;5027969;28;20711;-51
2022/05/21 04:34:41;;;;;;;6.63;6.23;;;17.70;99.90;;;;;;5033010;28;20222;-51
2022/05/21 04:37:08;;;;;;;6.80;6.33;;;17.70;99.90;;;;;;5036848;28;20675;-51
2022/05/21 04:39:35;;;;;;;7.60;6.70;;;17.70;99.90;;;;;;5043561;28;20675;-51
2022/05/21 04:42:02;;;;;;;6.63;6.10;;;17.70;99.90;;;;;;5047732;28;20226;-51
2022/05/21 04:44:34;;;;;;;7.10;6.60;;;17.60;99.90;;;;;;5031471;28;20286;-51
2022/05/21 04:47:02;;;;;;;7.10;6.40;;;17.60;99.90;;;;;;5028802;28;20225;-51
2022/05/21 04:49:29;;;;;;;7.63;6.87;;;17.50;99.90;;;;;;5032371;28;20209;-51
2022/05/21 04:51:57;;;;;;;9.80;7.13;;;17.50;99.90;;;;;;5044555;28;20213;-51
2022/05/21 04:54:24;;;;;;;6.03;5.67;;;17.60;99.90;;;;;;5034849;28;20218;-51
2022/05/21 04:56:54;;;;;;;10.20;7.63;;;17.70;99.90;;;;;;5031988;28;20234;-51
2022/05/21 04:59:21;;;;;;;7.13;6.53;;;17.60;99.90;;;;;;5026934;28;20271;-51
2022/05/21 05:01:49;;;;;;;7.43;6.77;;;17.70;99.90;;;;;;5017016;28;20215;-51
2022/05/21 05:04:16;;;;;;;6.77;6.20;;;17.70;99.90;;;;;;5021348;28;20190;-51
2022/05/21 05:06:43;;;;;;;6.80;6.30;;;17.70;99.90;;;;;;5029741;28;20302;-51
2022/05/21 05:09:11;;;;;;;7.37;6.87;;;17.60;99.90;;;;;;5014608;28;20202;-51
2022/05/21 05:11:38;;;;;;;6.77;6.27;;;17.70;99.90;;;;;;5022003;28;20267;-51
2022/05/21 05:14:05;;;;;;;6.57;6.07;;;17.70;99.90;;;;;;5030920;28;20218;-51
2022/05/21 05:16:32;;;;;;;7.10;6.40;;;17.80;99.90;;;;;;5026151;28;20199;-51
2022/05/21 05:19:01;;;;;;;9.20;6.53;;;17.80;99.90;;;;;;5019638;28;20199;-51
2022/05/21 05:21:28;;;;;;;6.03;5.53;;;17.90;99.90;;;;;;5011662;28;20293;-51
2022/05/21 05:23:55;;;;;;;6.73;6.23;;;18.00;99.90;;;;;;5045607;23;20235;-45
2022/05/21 05:26:22;;;;;;;6.10;5.70;;;17.90;99.90;;;;;;5023506;28;20261;-45
2022/05/21 05:28:49;;;;;;;7.00;5.70;;;17.90;99.90;;;;;;5019760;28;20208;-45
2022/05/21 05:31:17;;;;;;;6.07;5.67;;;18.00;99.90;;;;;;5014044;28;20585;-45
2022/05/21 05:33:43;;;;;;;5.47;5.17;;;17.90;99.90;;;;;;5017295;28;20269;-45
2022/05/21 05:36:12;;;;;;;6.30;5.80;;;17.80;99.90;;;;;;5016207;28;20628;-45
2022/05/21 05:38:39;;;;;;;6.10;5.70;;;17.90;99.90;;;;;;5019050;28;20203;-46
2022/05/21 05:41:08;;;;;;;6.37;5.77;;;17.90;99.90;;;;;;5017878;28;20206;-45
2022/05/21 05:43:36;;;;;;;6.27;5.87;;;17.90;99.90;;;;;;5022075;28;20215;-45
2022/05/21 05:46:03;;;;;;;7.17;6.60;;;17.90;99.90;;;;;;5021028;28;20715;-45
2022/05/21 05:48:30;;;;;;;8.87;5.97;;;18.00;99.90;;;;;;5011644;28;20673;-45
2022/05/21 05:50:59;;;;;;;6.60;6.07;;;18.00;99.90;;;;;;5019276;28;20211;-45
2022/05/21 05:53:27;;;;;;;6.20;5.80;;;18.00;99.90;;;;;;5012085;28;20310;-44
2022/05/21 05:55:55;;;;;;;6.77;6.30;;;18.00;99.90;;;;;;5018453;28;20242;-44
2022/05/21 06:01:07;;;;;;;6.50;6.00;;;18.20;99.90;;;;;;5016273;28;20197;-45
2022/05/21 06:03:36;;;;;;;6.60;6.10;;;18.20;99.90;;;;;;5023392;28;20222;-45
2022/05/21 06:06:04;;;;;;;7.50;6.80;;;18.20;99.90;;;;;;5030394;28;20618;-45
2022/05/21 06:08:32;;;;;;;6.80;6.20;;;18.10;99.90;;;;;;5016212;28;20207;-45
2022/05/21 06:11:00;;;;;;;6.97;6.37;;;18.10;99.90;;;;;;5020213;28;20245;-45
2022/05/21 06:13:27;;;;;;;7.53;6.93;;;18.10;99.90;;;;;;5011725;28;20223;-45
2022/05/21 06:15:54;;;;;;;7.30;6.70;;;18.20;99.90;;;;;;5019194;28;20643;-45
2022/05/21 06:18:22;;;;;;;6.70;6.30;;;18.10;99.90;;;;;;5022845;28;20285;-46
2022/05/21 06:20:51;;;;;;;8.03;7.27;;;18.10;99.90;;;;;;5032376;28;20202;-45
2022/05/21 06:23:19;;;;;;;7.03;6.27;;;18.10;99.90;;;;;;5023668;28;20288;-45
2022/05/21 06:25:48;;;;;;;9.43;7.97;;;18.00;99.90;;;;;;5026031;28;20199;-45
2022/05/21 06:28:15;;;;;;;6.87;6.40;;;18.00;99.90;;;;;;5022465;28;20249;-46
2022/05/21 06:30:43;;;;;;;7.27;6.87;;;18.00;99.90;;;;;;5019838;28;20191;-46
2022/05/21 06:33:17;;;;;;;7.27;6.67;;;18.10;99.90;;;;;;5020910;28;20762;-45
2022/05/21 06:35:45;;;;;;;8.40;7.60;;;18.00;99.90;;;;;;5032019;28;20194;-46
2022/05/21 06:38:12;;;;;;;7.33;6.80;;;18.10;99.90;;;;;;5032043;28;20194;-46
2022/05/21 06:40:39;;;;;;;6.30;5.70;;;18.20;99.90;;;;;;5030816;28;20206;-46
2022/05/21 06:43:07;;;;;;;52.90;43.23;;;18.30;99.90;;;;;;5033315;28;20222;-45
2022/05/21 06:45:36;;;;;;;27.23;22.00;;;18.30;99.90;;;;;;5034111;28;20742;-45
2022/05/21 06:48:04;;;;;;;9.00;8.20;;;18.40;99.90;;;;;;5029876;28;20583;-46
2022/05/21 06:50:31;;;;;;;6.87;6.43;;;18.40;99.90;;;;;;5032846;28;20198;-45
2022/05/21 06:52:58;;;;;;;7.57;6.97;;;18.50;99.90;;;;;;5022059;28;20234;-45
2022/05/21 06:55:27;;;;;;;6.67;6.27;;;18.60;99.90;;;;;;5024066;28;20227;-45
2022/05/21 06:57:54;;;;;;;7.07;6.47;;;18.50;99.90;;;;;;5021654;28;20203;-46
2022/05/21 07:00:23;;;;;;;6.83;6.33;;;18.50;99.90;;;;;;5030381;28;20335;-45
2022/05/21 07:02:50;;;;;;;6.33;5.77;;;18.50;99.90;;;;;;5021793;28;20643;-44
2022/05/21 07:08:05;;;;;;;4.97;4.67;;;18.40;99.90;;;;;;5030982;28;20276;-45
2022/05/21 07:10:33;;;;;;;6.80;6.30;;;18.40;99.90;;;;;;5028423;28;20205;-48
2022/05/21 07:13:00;;;;;;;5.47;5.20;;;18.50;99.90;;;;;;5023675;28;20879;-45
2022/05/21 07:15:28;;;;;;;6.90;6.43;;;18.40;99.90;;;;;;5028579;28;20227;-46
2022/05/21 07:18:01;;;;;;;6.57;6.07;;;18.50;99.90;;;;;;5028660;28;20719;-46
2022/05/21 07:20:29;;;;;;;6.93;6.53;;;18.40;99.90;;;;;;5023606;28;20289;-46
2022/05/21 07:22:57;;;;;;;6.00;5.60;;;18.40;99.90;;;;;;5018630;28;20234;-46
2022/05/21 07:25:27;;;;;;;6.60;6.13;;;18.50;99.90;;;;;;5034220;28;20195;-46
2022/05/21 07:27:54;;;;;;;7.03;6.60;;;18.50;99.90;;;;;;5028655;28;20198;-46
2022/05/21 07:30:21;;;;;;;6.20;5.90;;;18.50;99.90;;;;;;5022546;28;20207;-46
2022/05/21 07:32:50;;;;;;;7.40;6.70;;;18.60;99.90;;;;;;5017493;28;20215;-45
2022/05/21 07:35:19;;;;;;;6.07;5.73;;;18.80;99.90;;;;;;5022752;28;20700;-46
2022/05/21 07:37:46;;;;;;;5.93;5.30;;;19.00;99.90;;;;;;5018281;28;20195;-46
2022/05/21 07:40:15;;;;;;;7.37;6.70;;;19.30;99.90;;;;;;5024134;28;20603;-46
2022/05/21 07:42:42;;;;;;;9.07;4.93;;;19.50;99.90;;;;;;5023493;28;20222;-46
2022/05/21 07:45:12;;;;;;;5.63;5.20;;;19.70;99.90;;;;;;5026612;28;20202;-46
2022/05/21 07:47:40;;;;;;;5.37;4.80;;;20.00;99.90;;;;;;5026365;28;20203;-46
2022/05/21 07:50:10;;;;;;;5.90;5.33;;;20.10;99.90;;;;;;5020784;28;20249;-46
2022/05/21 07:52:37;;;;;;;5.30;4.73;;;20.20;99.90;;;;;;5018625;28;20288;-45
2022/05/21 07:55:05;;;;;;;4.47;3.77;;;19.90;99.90;;;;;;5025170;28;20280;-46
2022/05/21 07:57:32;;;;;;;2.63;2.57;;;19.90;99.90;;;;;;5016993;28;20199;-46
2022/05/21 07:59:59;;;;;;;2.63;2.43;;;19.80;99.90;;;;;;5015605;28;20199;-46
2022/05/21 08:02:26;;;;;;;2.30;1.97;;;19.60;99.90;;;;;;5020534;28;20223;-46
2022/05/21 08:04:53;;;;;;;3.97;2.90;;;19.50;99.90;;;;;;5016642;28;20192;-46
2022/05/21 08:07:21;;;;;;;1.80;1.70;;;19.30;99.90;;;;;;5024477;28;20203;-45
2022/05/21 08:09:49;;;;;;;2.57;1.97;;;19.10;99.90;;;;;;5031643;28;20202;-45
2022/05/21 08:12:17;;;;;;;3.03;2.77;;;19.10;99.90;;;;;;5032043;28;20218;-46
2022/05/21 08:14:45;;;;;;;5.07;1.93;;;19.00;99.90;;;;;;5047410;28;20688;-46
2022/05/21 08:17:12;;;;;;;2.33;2.23;;;18.90;99.90;;;;;;5031806;28;20265;-45
2022/05/21 08:19:40;;;;;;;2.37;2.27;;;18.90;99.90;;;;;;5029941;28;20210;-46
2022/05/21 08:27:37;;;;;;;2.67;2.50;;;19.10;99.90;;;;;;5029117;28;20287;-45
2022/05/21 08:30:06;;;;;;;2.83;2.80;;;19.00;99.90;;;;;;5030074;28;20210;-46
2022/05/21 08:32:33;;;;;;;2.33;2.23;;;19.00;99.90;;;;;;5024374;28;20278;-45
2022/05/21 08:35:00;;;;;;;2.63;2.53;;;19.10;99.90;;;;;;5022415;28;20221;-45
2022/05/21 08:37:28;;;;;;;3.33;3.10;;;19.00;99.90;;;;;;5027768;28;20205;-45
2022/05/21 08:39:56;;;;;;;3.47;3.13;;;19.00;99.90;;;;;;5014953;28;20286;-45
2022/05/21 08:42:33;;;;;;;3.53;3.23;;;19.00;99.90;;;;;;5016819;28;20223;-46
2022/05/21 08:45:20;;;;;;;4.20;3.93;;;19.30;99.90;;;;;;5028580;28;20225;-46
2022/05/21 08:47:54;;;;;;;2.77;2.57;;;19.40;99.90;;;;;;5028993;28;20195;-46
2022/05/21 08:50:23;;;;;;;2.70;2.60;;;19.50;99.90;;;;;;5017635;28;20202;-46
2022/05/21 08:52:58;;;;;;;2.63;2.53;;;19.80;99.90;;;;;;5016978;28;20254;-46
2022/05/21 08:55:32;;;;;;;3.23;3.03;;;20.00;99.90;;;;;;5022556;28;20222;-45
2022/05/21 08:58:02;;;;;;;3.00;2.90;;;21.20;99.90;;;;;;5021120;28;20203;-46
2022/05/21 09:00:35;;;;;;;1.83;1.73;;;21.60;99.90;;;;;;5020709;28;20751;-46
2022/05/21 09:03:07;;;;;;;3.20;2.60;;;21.70;99.90;;;;;;5021406;28;20215;-46
2022/05/21 09:05:35;;;;;;;2.57;2.47;;;21.70;99.90;;;;;;5012121;28;20189;-46
2022/05/21 09:08:09;;;;;;;2.60;2.50;;;21.50;99.90;;;;;;5022021;28;20550;-46
2022/05/21 09:10:52;;;;;;;2.63;2.50;;;21.80;99.90;;;;;;5029452;28;20661;-46
2022/05/21 09:13:24;;;;;;;3.88;2.45;;;21.70;99.90;;;;;;5022463;28;20457;-46
2022/05/21 09:18:36;;;;;;;5.60;2.93;;;21.70;99.90;;;;;;5029276;28;20340;-46
2022/05/21 09:21:10;;;;;;;2.60;2.40;;;21.90;99.90;;;;;;5028591;28;20872;-46
2022/05/21 09:23:48;;;;;;;2.37;2.27;;;22.10;99.90;;;;;;5028624;28;20916;-46
2022/05/21 09:26:18;;;;;;;2.47;2.37;;;22.40;99.90;;;;;;5031058;28;20257;-46
2022/05/21 09:28:48;;;;;;;3.60;1.87;;;22.80;99.90;;;;;;5029147;28;20214;-46
2022/05/21 09:31:21;;;;;;;2.80;2.70;;;23.10;99.90;;;;;;5029248;28;20739;-46
2022/05/21 09:33:48;;;;;;;3.43;3.27;;;23.30;99.90;;;;;;5031466;28;20229;-46
2022/05/21 09:36:18;;;;;;;2.93;2.50;;;23.50;99.90;;;;;;5022599;28;20275;-46
2022/05/21 09:38:53;;;;;;;2.73;2.43;;;23.70;99.90;;;;;;5041940;28;20202;-46
2022/05/21 09:41:24;;;;;;;2.50;2.40;;;24.20;99.90;;;;;;5051382;28;20209;-46
2022/05/21 09:46:40;;;;;;;2.60;2.53;;;24.50;99.90;;;;;;5031649;28;20245;-47
2022/05/21 09:49:26;;;;;;;2.97;2.60;;;24.50;99.90;;;;;;5031574;28;20668;-46
2022/05/21 09:51:55;;;;;;;4.10;3.87;;;24.50;99.90;;;;;;5039777;28;20288;-47
2022/05/21 09:54:26;;;;;;;19.53;16.20;;;24.40;99.90;;;;;;5036422;28;20202;-47
2022/05/21 09:56:59;;;;;;;17.60;14.60;;;24.80;99.90;;;;;;5030786;28;20265;-46
2022/05/21 09:59:28;;;;;;;15.07;12.57;;;25.30;99.90;;;;;;5030429;28;20630;-46
2022/05/21 10:01:59;;;;;;;6.70;6.20;;;25.30;99.90;;;;;;5029462;28;20668;-47
2022/05/21 10:04:38;;;;;;;6.30;5.90;;;25.60;99.90;;;;;;5030045;28;20198;-46
2022/05/21 10:10:58;;;;;;;3.37;3.17;;;25.00;99.90;;;;;;5030514;28;20260;-47
2022/05/21 10:12:54;;;;;;;3.37;3.20;;;23.60;99.90;;;;;;5026294;28;20267;-46
2022/05/21 10:15:26;;;;;;;3.67;3.57;;;23.20;99.90;;;;;;5010401;28;20211;-47
2022/05/21 10:18:00;;;;;;;3.60;3.40;;;23.10;99.90;;;;;;5016681;28;20684;-46
2022/05/21 10:20:34;;;;;;;3.43;3.23;;;22.90;99.90;;;;;;5028574;28;20607;-46
2022/05/21 10:23:09;;;;;;;3.97;3.67;;;23.00;99.90;;;;;;5011001;28;20601;-46
2022/05/21 10:25:53;;;;;;;3.13;3.03;;;22.80;99.90;;;;;;5009773;28;20226;-46
2022/05/21 10:28:39;;;;;;;3.20;3.10;;;22.60;99.90;;;;;;5009899;28;20203;-46
2022/05/21 10:31:25;;;;;;;5.77;5.50;;;22.60;99.90;;;;;;5009750;28;20683;-46
2022/05/21 10:34:03;;;;;;;3.43;3.23;;;22.50;99.90;;;;;;5013566;28;20623;-46
2022/05/21 10:36:44;;;;;;;7.90;7.40;;;22.60;99.90;;;;;;5011543;28;20995;-46
2022/05/21 10:39:32;;;;;;;17.10;15.80;;;22.70;99.90;;;;;;5030243;28;20198;-46
2022/05/21 10:42:25;;;;;;;9.30;8.63;;;23.20;99.90;;;;;;5030043;28;20256;-47
2022/05/21 10:45:16;;;;;;;3.40;3.20;;;23.10;99.90;;;;;;5029127;28;20214;-46
2022/05/21 10:48:16;;;;;;;3.83;2.83;;;23.00;99.90;;;;;;5030159;28;20222;-46
2022/05/21 10:50:52;;;;;;;3.50;3.20;;;22.90;99.90;;;;;;5024891;28;20583;-46
2022/05/21 10:53:32;;;;;;;3.37;3.27;;;23.00;99.90;;;;;;5028158;28;20226;-46
2022/05/21 10:56:06;;;;;;;4.37;4.00;;;22.80;99.90;;;;;;5029863;28;20226;-46
2022/05/21 10:59:04;;;;;;;6.90;6.27;;;22.90;99.90;;;;;;5030036;28;20206;-46
2022/05/21 11:01:38;;;;;;;8.03;7.37;;;22.90;99.90;;;;;;5028710;28;20277;-46
2022/05/21 11:04:25;;;;;;;3.50;3.30;;;22.80;99.90;;;;;;4986494;28;25578;-46
2022/05/21 11:07:21;;;;;;;9.27;8.23;;;22.90;99.90;;;;;;4971439;28;20200;-46
2022/05/21 11:10:00;;;;;;;6.87;6.33;;;23.30;99.90;;;;;;4970516;28;20200;-47
2022/05/21 11:12:34;;;;;;;4.00;3.70;;;23.80;99.90;;;;;;4973970;28;20645;-46
2022/05/21 11:15:06;;;;;;;5.60;5.30;;;23.70;99.90;;;;;;4973723;28;20232;-47
2022/05/21 11:17:43;;;;;;;5.13;4.70;;;23.90;99.90;;;;;;4974353;28;20811;-46
2022/05/21 11:20:17;;;;;;;4.23;3.87;;;23.90;99.90;;;;;;4972306;28;20212;-47
2022/05/21 11:22:51;;;;;;;4.30;3.90;;;23.80;99.90;;;;;;4874039;28;2746568;-46
2022/05/21 11:25:22;;;;;;;4.43;3.60;;;24.00;99.90;;;;;;4968348;28;20207;-46
2022/05/21 11:27:56;;;;;;;3.90;3.70;;;23.90;99.90;;;;;;4965954;28;20288;-46
2022/05/21 11:30:23;;;;;;;4.07;3.40;;;24.20;99.90;;;;;;4955948;29;20634;-47
2022/05/21 11:38:31;;;;;;;4.33;3.60;;;25.20;99.90;;;;;;4974438;28;20255;-46
2022/05/21 11:46:52;;;;;;;4.07;3.87;;;24.80;99.90;;;;;;4968464;28;20207;-51
2022/05/21 11:49:44;;;;;;;3.80;3.70;;;24.80;99.90;;;;;;4970913;28;20663;-51
2022/05/21 11:52:48;;;;;;;4.43;4.13;;;24.90;99.90;;;;;;4969976;28;20630;-51
2022/05/21 11:55:19;;;;;;;4.93;4.00;;;24.90;99.90;;;;;;4952490;29;20236;-52
2022/05/21 11:57:48;;;;;;;4.33;3.83;;;24.90;99.90;;;;;;4953810;29;20296;-52
2022/05/21 12:00:54;;;;;;;4.97;4.77;;;25.10;99.90;;;;;;4953120;29;20201;-52
2022/05/21 12:03:23;;;;;;;5.70;5.37;;;25.10;99.90;;;;;;4934741;29;20225;-51
2022/05/21 12:06:16;;;;;;;4.50;4.17;;;25.10;99.90;;;;;;4946179;29;20272;-51
2022/05/21 12:08:50;;;;;;;4.77;4.47;;;25.00;99.90;;;;;;4951618;29;20260;-52
2022/05/21 12:11:45;;;;;;;4.30;4.10;;;25.10;99.90;;;;;;4943377;29;20213;-52
2022/05/21 12:14:27;;;;;;;4.60;4.40;;;25.10;99.90;;;;;;4953168;29;20703;-51
2022/05/21 12:17:00;;;;;;;4.73;4.43;;;25.10;99.90;;;;;;4954581;29;20225;-50
2022/05/21 12:20:06;;;;;;;6.03;5.63;;;24.90;99.90;;;;;;4953607;28;20843;-51
2022/05/21 12:22:50;;;;;;;6.03;4.60;;;24.60;99.90;;;;;;4947899;29;20289;-52
2022/05/21 12:25:57;;;;;;;5.73;5.20;;;24.50;99.90;;;;;;4949282;29;20259;-52
2022/05/21 12:28:46;;;;;;;5.80;5.40;;;24.60;99.90;;;;;;4939775;29;20602;-52
2022/05/21 12:31:23;;;;;;;5.70;5.40;;;24.90;99.90;;;;;;4934799;29;20268;-52
2022/05/21 12:34:05;;;;;;;5.13;4.60;;;24.60;99.90;;;;;;4945143;28;20233;-51
2022/05/21 12:36:50;;;;;;;5.67;5.20;;;24.60;99.90;;;;;;4947712;29;20224;-51
2022/05/21 12:39:22;;;;;;;4.53;4.33;;;24.60;99.90;;;;;;4943618;28;20229;-51
2022/05/21 12:41:53;;;;;;;5.80;5.20;;;24.50;99.90;;;;;;4950258;29;20213;-52
2022/05/21 12:44:39;;;;;;;5.30;5.10;;;24.40;99.90;;;;;;4952048;29;20283;-51
2022/05/21 12:47:10;;;;;;;4.90;4.60;;;24.50;99.90;;;;;;4953915;28;20701;-51
2022/05/21 12:49:38;;;;;;;4.67;4.37;;;24.50;99.90;;;;;;4951132;29;20205;-51
2022/05/21 12:52:05;;;;;;;7.27;4.33;;;24.60;99.90;;;;;;4952224;29;20201;-52
2022/05/21 12:54:33;;;;;;;6.70;4.83;;;24.70;99.90;;;;;;4953958;29;20221;-51
2022/05/21 12:57:12;;;;;;;6.53;5.93;;;24.70;99.90;;;;;;4953705;29;20227;-51
2022/05/21 12:59:40;;;;;;;6.07;5.77;;;24.60;99.90;;;;;;4953771;29;20296;-52
2022/05/21 13:02:13;;;;;;;5.30;4.93;;;24.60;99.90;;;;;;4945786;29;20201;-51
2022/05/21 13:04:42;;;;;;;4.67;4.37;;;24.40;99.90;;;;;;4953533;29;20312;-52
2022/05/21 13:07:16;;;;;;;5.53;4.07;;;24.40;99.90;;;;;;4953610;29;20208;-51
2022/05/21 13:09:52;;;;;;;4.27;3.97;;;24.50;99.90;;;;;;4953666;29;20750;-51
2022/05/21 13:12:19;;;;;;;6.03;5.67;;;24.60;99.90;;;;;;4953264;29;20975;-52
2022/05/21 13:14:49;;;;;;;6.67;5.33;;;24.70;99.90;;;;;;4946938;29;20295;-51
2022/05/21 13:17:26;;;;;;;5.50;5.00;;;24.70;99.90;;;;;;4953452;29;20276;-52
2022/05/21 13:20:15;;;;;;;6.10;5.57;;;24.70;99.90;;;;;;4947758;29;20351;-51
2022/05/21 13:23:04;;;;;;;5.67;5.17;;;24.60;99.90;;;;;;4941408;29;20229;-51
2022/05/21 13:25:31;;;;;;;8.57;5.47;;;24.20;99.90;;;;;;4934388;29;20201;-51
2022/05/21 13:27:58;;;;;;;4.57;4.17;;;24.20;99.90;;;;;;4934396;29;20201;-51
2022/05/21 13:30:35;;;;;;;7.27;5.43;;;24.00;99.90;;;;;;4933554;29;20672;-52
2022/05/21 13:33:08;;;;;;;5.73;5.30;;;24.10;99.90;;;;;;4951740;29;20245;-51
2022/05/21 13:35:39;;;;;;;6.37;5.77;;;24.20;99.90;;;;;;4953407;29;20288;-52
2022/05/21 13:38:12;;;;;;;4.60;4.40;;;24.40;99.90;;;;;;4953362;29;20260;-52
2022/05/21 13:40:49;;;;;;;5.53;5.03;;;24.40;99.90;;;;;;4953311;29;20268;-52
2022/05/21 13:43:16;;;;;;;5.70;4.77;;;24.60;99.90;;;;;;4952647;28;20666;-51
2022/05/21 13:45:54;;;;;;;4.50;4.20;;;24.40;99.90;;;;;;4953339;29;20267;-53